createdAt,value
2022-11-04T00:02:05.229Z,7.28
2022-11-04T00:04:31.741Z,7.37
2022-11-04T00:06:58.439Z,7.34
2022-11-04T00:09:27.439Z,7.41
2022-11-04T00:12:13.037Z,7.42
2022-11-04T00:14:39.473Z,7.43
2022-11-04T00:17:24.272Z,7.41
2022-11-04T00:20:13.300Z,7.28
2022-11-04T00:23:00.347Z,7.41
2022-11-04T00:25:46.551Z,7.43
2022-11-04T00:28:34.392Z,7.43
2022-11-04T00:31:22.290Z,7.34
2022-11-04T00:33:49.722Z,7.18
2022-11-04T00:36:16.566Z,7.31
2022-11-04T00:38:43.043Z,7.32
2022-11-04T00:41:28.755Z,7.19
2022-11-04T00:43:57.793Z,7.25
2022-11-04T00:46:24.468Z,7.22
2022-11-04T00:48:50.974Z,7.18
2022-11-04T00:51:18.101Z,7.29
2022-11-04T00:53:44.486Z,7.21
2022-11-04T00:56:10.972Z,7.21
2022-11-04T00:58:37.439Z,7.03
2022-11-04T01:01:11.438Z,6.99
2022-11-04T01:03:38.188Z,6.88
2022-11-04T01:06:05.733Z,7.04
2022-11-04T01:08:32.190Z,7.01
2022-11-04T01:11:02.477Z,6.96
2022-11-04T01:13:29.110Z,7.10
2022-11-04T01:16:01.926Z,6.95
2022-11-04T01:18:28.746Z,7.03
2022-11-04T01:20:55.167Z,6.81
2022-11-04T01:23:21.559Z,6.85
2022-11-04T01:25:47.976Z,6.79
2022-11-04T01:28:14.455Z,6.86
2022-11-04T01:30:40.916Z,6.80
2022-11-04T01:33:07.492Z,6.95
2022-11-04T01:35:33.900Z,6.97
2022-11-04T01:38:00.356Z,7.08
2022-11-04T01:40:27.121Z,7.00
2022-11-04T01:42:53.586Z,6.96
2022-11-04T01:45:21.804Z,6.75
2022-11-04T01:48:05.208Z,6.42
2022-11-04T01:50:34.761Z,6.22
2022-11-04T01:53:07.229Z,6.68
2022-11-04T01:55:36.292Z,6.59
2022-11-04T01:58:10.673Z,6.65
2022-11-04T02:00:41.842Z,6.80
2022-11-04T02:03:17.172Z,6.46
2022-11-04T02:09:32.391Z,6.78
2022-11-04T02:12:17.608Z,6.91
2022-11-04T02:14:46.392Z,6.92
2022-11-04T02:17:52.132Z,7.08
2022-11-04T02:20:56.796Z,6.60
2022-11-04T02:23:43.409Z,6.63
2022-11-04T02:26:18.780Z,6.67
2022-11-04T02:29:03.608Z,6.63
2022-11-04T02:31:49.782Z,7.02
2022-11-04T02:34:34.510Z,7.01
2022-11-04T02:37:19.102Z,6.98
2022-11-04T02:39:47.182Z,7.13
2022-11-04T02:42:31.245Z,6.90
2022-11-04T02:45:26.742Z,7.16
2022-11-04T02:48:16.562Z,7.11
2022-11-04T02:51:22.514Z,7.00
2022-11-04T02:54:04.547Z,7.10
2022-11-04T02:56:35.800Z,6.89
2022-11-04T02:59:14.314Z,6.86
2022-11-04T03:01:44.959Z,6.88
2022-11-04T03:04:15.523Z,7.02
2022-11-04T03:06:47.695Z,7.06
2022-11-04T03:09:15.460Z,6.59
2022-11-04T03:11:45.653Z,6.14
2022-11-04T03:14:22.834Z,6.55
2022-11-04T03:16:52.853Z,6.52
2022-11-04T03:19:40.080Z,6.83
2022-11-04T03:22:12.349Z,6.89
2022-11-04T03:24:39.901Z,7.00
2022-11-04T03:28:01.805Z,6.71
2022-11-04T03:30:36.266Z,6.99
2022-11-04T03:33:28.658Z,7.00
2022-11-04T03:35:55.152Z,6.57
2022-11-04T03:38:22.666Z,6.35
2022-11-04T03:40:49.937Z,6.34
2022-11-04T03:43:25.735Z,6.05
2022-11-04T03:45:52.532Z,5.90
2022-11-04T03:48:20.777Z,6.45
2022-11-04T03:50:48.790Z,6.51
2022-11-04T03:53:23.819Z,6.73
2022-11-04T03:56:11.845Z,6.48
2022-11-04T03:59:07.850Z,6.71
2022-11-04T04:01:52.856Z,6.82
2022-11-04T04:04:25.236Z,6.58
2022-11-04T04:06:56.253Z,6.76
2022-11-04T04:09:35.512Z,6.87
2022-11-04T04:12:11.337Z,6.93
2022-11-04T04:14:49.348Z,6.94
2022-11-04T04:17:19.327Z,6.73
2022-11-04T04:19:56.155Z,6.64
2022-11-04T04:22:28.277Z,6.55
2022-11-04T04:25:17.048Z,6.79
2022-11-04T04:27:44.952Z,6.70
2022-11-04T04:30:16.821Z,6.76
2022-11-04T04:32:55.840Z,6.59
2022-11-04T04:35:42.829Z,6.78
2022-11-04T04:38:38.272Z,6.92
2022-11-04T04:41:39.904Z,7.10
2022-11-04T04:44:34.275Z,7.38
2022-11-04T04:47:02.843Z,6.89
2022-11-04T04:49:35.025Z,6.87
2022-11-04T04:52:04.162Z,6.96
2022-11-04T04:54:30.588Z,6.97
2022-11-04T04:56:57.020Z,6.86
2022-11-04T04:59:23.454Z,6.82
2022-11-04T05:01:50.158Z,6.99
2022-11-04T05:04:16.801Z,7.22
2022-11-04T05:06:43.195Z,7.08
2022-11-04T05:09:09.654Z,7.09
2022-11-04T05:11:36.245Z,7.01
2022-11-04T05:14:02.665Z,6.90
2022-11-04T05:16:29.523Z,6.96
2022-11-04T05:18:55.935Z,7.22
2022-11-04T05:21:22.328Z,7.37
2022-11-04T05:23:48.767Z,7.54
2022-11-04T05:26:15.403Z,7.60
2022-11-04T05:28:41.847Z,7.62
2022-11-04T05:31:08.264Z,7.31
2022-11-04T05:33:34.717Z,7.65
2022-11-04T05:36:13.122Z,7.73
2022-11-04T05:38:40.363Z,7.52
2022-11-04T05:41:08.593Z,7.46
2022-11-04T05:43:35.477Z,6.94
2022-11-04T05:46:02.386Z,7.01
2022-11-04T05:48:29.153Z,6.66
2022-11-04T05:50:56.013Z,6.98
2022-11-04T05:53:22.609Z,7.03
2022-11-04T05:55:49.094Z,7.17
2022-11-04T05:58:15.541Z,7.17
2022-11-04T06:00:43.045Z,7.36
2022-11-04T06:03:12.151Z,7.38
2022-11-04T06:05:41.845Z,7.27
2022-11-04T06:08:08.571Z,7.49
2022-11-04T06:10:35.246Z,7.07
2022-11-04T06:13:01.684Z,7.19
2022-11-04T06:15:28.094Z,6.62
2022-11-04T06:17:54.519Z,6.95
2022-11-04T06:20:20.945Z,7.22
2022-11-04T06:22:47.405Z,6.93
2022-11-04T06:25:13.842Z,6.86
2022-11-04T06:27:40.355Z,7.02
2022-11-04T06:30:07.416Z,7.25
2022-11-04T06:32:33.864Z,7.31
2022-11-04T06:35:00.310Z,7.26
2022-11-04T06:37:26.709Z,7.35
2022-11-04T06:39:53.141Z,7.34
2022-11-04T06:42:19.692Z,7.30
2022-11-04T06:44:46.174Z,7.23
2022-11-04T06:47:12.813Z,7.18
2022-11-04T06:49:39.874Z,7.31
2022-11-04T06:52:06.289Z,7.36
2022-11-04T06:54:32.727Z,7.48
2022-11-04T06:56:59.358Z,7.70
2022-11-04T06:59:25.807Z,7.69
2022-11-04T07:01:52.451Z,7.76
2022-11-04T07:04:19.401Z,7.63
2022-11-04T07:06:45.896Z,7.64
2022-11-04T07:09:14.061Z,7.76
2022-11-04T07:11:41.309Z,7.95
2022-11-04T07:14:08.904Z,8.00
2022-11-04T07:16:35.886Z,7.98
2022-11-04T07:19:02.812Z,7.89
2022-11-04T07:21:29.370Z,7.89
2022-11-04T07:23:55.814Z,7.84
2022-11-04T07:26:22.229Z,7.54
2022-11-04T07:28:48.812Z,7.97
2022-11-04T07:31:16.940Z,8.31
2022-11-04T07:33:43.496Z,8.13
2022-11-04T07:36:13.433Z,8.17
2022-11-04T07:38:39.831Z,8.35
2022-11-04T07:41:07.102Z,8.47
2022-11-04T07:43:33.817Z,8.75
2022-11-04T07:46:05.765Z,8.87
2022-11-04T07:48:32.365Z,9.08
2022-11-04T07:51:00.204Z,9.08
2022-11-04T07:53:27.980Z,9.22
2022-11-04T07:55:54.444Z,9.39
2022-11-04T07:58:22.240Z,9.42
2022-11-04T08:00:48.955Z,9.40
2022-11-04T08:03:15.714Z,9.32
2022-11-04T08:05:42.160Z,9.40
2022-11-04T08:08:08.568Z,9.48
2022-11-04T08:10:35.905Z,9.54
2022-11-04T08:13:02.284Z,9.50
2022-11-04T08:15:29.195Z,9.28
2022-11-04T08:17:55.613Z,9.42
2022-11-04T08:20:22.032Z,9.43
2022-11-04T08:22:48.404Z,9.39
2022-11-04T08:25:14.989Z,9.08
2022-11-04T08:27:41.399Z,9.31
2022-11-04T08:30:08.803Z,9.49
2022-11-04T08:32:35.405Z,9.30
2022-11-04T08:35:01.798Z,9.51
2022-11-04T08:37:28.266Z,9.54
2022-11-04T08:39:54.667Z,9.13
2022-11-04T08:42:21.181Z,9.31
2022-11-04T08:44:51.519Z,9.07
2022-11-04T08:47:18.171Z,9.47
2022-11-04T08:49:44.607Z,9.26
2022-11-04T08:52:11.072Z,9.14
2022-11-04T08:54:37.560Z,9.12
2022-11-04T08:57:03.992Z,9.33
2022-11-04T08:59:30.423Z,9.19
2022-11-04T09:01:57.276Z,9.16
2022-11-04T09:04:23.981Z,9.27
2022-11-04T09:06:52.077Z,9.45
2022-11-04T09:09:19.056Z,9.50
2022-11-04T09:11:46.778Z,9.53
2022-11-04T09:14:13.375Z,9.28
2022-11-04T09:16:41.101Z,9.33
2022-11-04T09:19:08.084Z,9.42
2022-11-04T09:21:34.723Z,9.51
2022-11-04T09:24:01.218Z,9.43
2022-11-04T09:26:28.131Z,9.51
2022-11-04T09:28:56.129Z,9.48
2022-11-04T09:31:23.067Z,9.34
2022-11-04T09:33:50.365Z,9.53
2022-11-04T09:36:17.226Z,9.39
2022-11-04T09:38:44.963Z,9.30
2022-11-04T09:41:23.502Z,9.30
2022-11-04T09:44:08.742Z,9.60
2022-11-04T09:46:37.286Z,9.48
2022-11-04T09:49:07.543Z,9.85
2022-11-04T09:54:45.813Z,9.50
2022-11-04T09:57:17.574Z,9.57
2022-11-04T09:59:44.528Z,9.68
2022-11-04T10:02:11.709Z,9.76
2022-11-04T10:04:50.573Z,9.40
2022-11-04T10:07:26.903Z,9.54
2022-11-04T10:10:15.052Z,9.44
2022-11-04T10:13:01.791Z,9.78
2022-11-04T10:16:02.135Z,9.71
2022-11-04T10:18:55.227Z,9.57
2022-11-04T10:21:30.354Z,9.43
2022-11-04T10:24:15.431Z,9.53
2022-11-04T10:26:44.802Z,9.84
2022-11-04T10:29:23.641Z,9.52
2022-11-04T10:31:52.130Z,9.94
2022-11-04T10:34:50.832Z,9.54
2022-11-04T10:37:17.689Z,9.79
2022-11-04T10:39:46.152Z,9.71
2022-11-04T10:42:24.511Z,9.56
2022-11-04T10:44:52.280Z,9.82
2022-11-04T10:47:34.267Z,9.81
2022-11-04T10:50:28.980Z,9.82
2022-11-04T10:53:14.730Z,9.44
2022-11-04T10:55:51.307Z,9.36
2022-11-04T10:58:27.500Z,9.68
2022-11-04T11:00:54.662Z,9.62
2022-11-04T11:03:34.841Z,9.80
2022-11-04T11:06:40.246Z,9.84
2022-11-04T11:09:15.257Z,9.84
2022-11-04T11:11:51.841Z,9.84
2022-11-04T11:14:30.366Z,9.60
2022-11-04T11:17:04.776Z,9.79
2022-11-04T11:19:46.130Z,9.94
2022-11-04T11:22:28.218Z,10.04
2022-11-04T11:25:12.509Z,10.07
2022-11-04T11:27:39.403Z,9.94
2022-11-04T11:30:06.379Z,9.98
2022-11-04T11:32:43.301Z,10.04
2022-11-04T11:35:21.882Z,9.93
2022-11-04T11:37:48.975Z,9.63
2022-11-04T11:40:31.620Z,9.55
2022-11-04T11:43:00.803Z,9.81
2022-11-04T11:45:28.737Z,9.95
2022-11-04T11:47:56.142Z,9.91
2022-11-04T11:50:32.569Z,10.03
2022-11-04T11:53:27.009Z,10.09
2022-11-04T11:56:17.305Z,10.20
2022-11-04T12:01:50.813Z,10.20
2022-11-04T12:10:10.117Z,10.26
2022-11-04T12:12:53.749Z,10.20
2022-11-04T12:15:46.865Z,10.28
2022-11-04T12:18:33.088Z,10.23
2022-11-04T12:21:16.928Z,10.11
2022-11-04T12:23:55.566Z,10.17
2022-11-04T12:26:36.688Z,10.15
2022-11-04T12:29:10.320Z,10.08
2022-11-04T12:32:02.658Z,9.95
2022-11-04T12:34:47.055Z,9.92
2022-11-04T12:37:38.569Z,10.16
2022-11-04T12:41:05.071Z,10.02
2022-11-04T12:43:54.136Z,9.98
2022-11-04T12:46:46.123Z,9.91
2022-11-04T12:50:14.884Z,9.86
2022-11-04T12:53:25.973Z,9.82
2022-11-04T12:56:11.242Z,9.94
2022-11-04T12:59:08.709Z,9.90
2022-11-04T13:01:44.181Z,9.97
2022-11-04T13:04:14.772Z,9.87
2022-11-04T13:07:01.065Z,9.94
2022-11-04T13:09:49.393Z,9.86
2022-11-04T13:12:25.433Z,9.78
2022-11-04T13:14:51.797Z,9.75
2022-11-04T13:17:24.124Z,9.85
2022-11-04T13:19:53.038Z,9.84
2022-11-04T13:22:26.330Z,9.82
2022-11-04T13:24:59.207Z,9.92
2022-11-04T13:27:33.114Z,9.89
2022-11-04T13:30:06.212Z,9.71
2022-11-04T13:33:09.023Z,9.86
2022-11-04T13:35:48.209Z,9.79
2022-11-04T13:38:20.614Z,9.87
2022-11-04T13:40:58.453Z,9.83
2022-11-04T13:43:39.340Z,9.75
2022-11-04T13:46:31.249Z,9.76
2022-11-04T13:49:02.600Z,9.72
2022-11-04T13:51:45.003Z,9.78
2022-11-04T13:54:39.202Z,9.81
2022-11-04T13:57:18.856Z,9.64
2022-11-04T14:00:18.329Z,9.63
2022-11-04T14:02:49.253Z,9.68
2022-11-04T14:05:28.248Z,9.48
2022-11-04T14:08:03.564Z,9.64
2022-11-04T14:10:48.275Z,9.74
2022-11-04T14:13:30.045Z,9.76
2022-11-04T14:16:02.312Z,9.93
2022-11-04T14:18:31.272Z,9.95
2022-11-04T14:21:05.638Z,9.97
2022-11-04T14:23:33.035Z,10.04
2022-11-04T14:26:02.720Z,9.86
2022-11-04T14:28:30.913Z,9.74
2022-11-04T14:31:00.538Z,9.59
2022-11-04T14:33:51.603Z,9.61
2022-11-04T14:36:20.788Z,9.61
2022-11-04T14:39:10.281Z,9.72
2022-11-04T14:41:39.716Z,9.46
2022-11-04T14:44:21.275Z,9.43
2022-11-04T14:46:51.701Z,9.61
2022-11-04T14:49:39.984Z,9.56
2022-11-04T14:52:17.037Z,9.66
2022-11-04T14:54:43.736Z,9.64
2022-11-04T14:57:17.782Z,9.53
2022-11-04T14:59:44.704Z,9.48
2022-11-04T15:02:31.494Z,9.41
2022-11-04T15:05:00.164Z,9.26
2022-11-04T15:07:26.538Z,9.33
2022-11-04T15:09:52.983Z,9.47
2022-11-04T15:12:38.550Z,9.45
2022-11-04T15:15:34.352Z,9.47
2022-11-04T15:18:05.083Z,9.42
2022-11-04T15:20:32.857Z,9.48
2022-11-04T15:23:02.979Z,9.44
2022-11-04T15:25:29.671Z,9.39
2022-11-04T15:27:56.722Z,9.34
2022-11-04T15:30:25.782Z,9.32
2022-11-04T15:33:03.582Z,9.40
2022-11-04T15:35:33.251Z,9.32
2022-11-04T15:38:01.684Z,9.22
2022-11-04T15:40:29.702Z,9.28
2022-11-04T15:42:58.826Z,9.30
2022-11-04T15:45:59.476Z,9.23
2022-11-04T15:48:34.827Z,9.29
2022-11-04T15:51:21.930Z,9.15
2022-11-04T15:53:55.102Z,9.17
2022-11-04T15:56:26.073Z,9.17
2022-11-04T15:58:54.264Z,9.21
2022-11-04T16:01:21.213Z,9.13
2022-11-04T16:03:56.420Z,9.18
2022-11-04T16:06:42.016Z,9.20
2022-11-04T16:09:21.402Z,9.07
2022-11-04T16:12:09.199Z,8.90
2022-11-04T16:14:35.798Z,9.14
2022-11-04T16:17:02.277Z,9.08
2022-11-04T16:19:30.203Z,9.20
2022-11-04T16:22:04.803Z,9.22
2022-11-04T16:24:34.664Z,9.09
2022-11-04T16:27:01.406Z,9.18
2022-11-04T16:29:30.925Z,9.15
2022-11-04T16:32:18.021Z,9.00
2022-11-04T16:34:46.824Z,8.96
2022-11-04T16:37:13.284Z,8.89
2022-11-04T16:39:40.506Z,9.05
2022-11-04T16:42:07.214Z,9.06
2022-11-04T16:44:33.854Z,9.07
2022-11-04T16:47:00.873Z,9.06
2022-11-04T16:49:27.342Z,9.03
2022-11-04T16:51:56.458Z,9.08
2022-11-04T16:54:24.561Z,8.84
2022-11-04T16:56:51.151Z,8.78
2022-11-04T16:59:17.812Z,8.88
2022-11-04T17:01:44.372Z,9.01
2022-11-04T17:04:10.906Z,8.96
2022-11-04T17:06:38.196Z,8.98
2022-11-04T17:09:17.769Z,8.92
2022-11-04T17:11:44.152Z,8.92
2022-11-04T17:14:10.525Z,9.05
2022-11-04T17:16:36.910Z,8.85
2022-11-04T17:19:03.323Z,8.84
2022-11-04T17:21:30.247Z,8.92
2022-11-04T17:23:56.984Z,8.90
2022-11-04T17:26:23.562Z,8.96
2022-11-04T17:28:50.136Z,8.93
2022-11-04T17:31:19.032Z,8.95
2022-11-04T17:33:45.509Z,8.91
2022-11-04T17:36:16.899Z,8.93
2022-11-04T17:38:43.419Z,8.82
2022-11-04T17:41:28.875Z,8.84
2022-11-04T17:44:01.463Z,8.93
2022-11-04T17:46:37.628Z,8.84
2022-11-04T17:49:12.007Z,8.93
2022-11-04T17:51:40.283Z,8.98
2022-11-04T17:54:07.232Z,8.94
2022-11-04T17:56:33.720Z,8.77
2022-11-04T17:59:01.369Z,8.89
2022-11-04T18:01:28.709Z,8.90
2022-11-04T18:03:55.516Z,8.96
2022-11-04T18:06:22.476Z,8.91
2022-11-04T18:08:49.144Z,8.88
2022-11-04T18:11:35.769Z,8.94
2022-11-04T18:14:02.262Z,8.98
2022-11-04T18:16:28.837Z,8.86
2022-11-04T18:18:56.899Z,8.85
2022-11-04T18:21:23.355Z,8.85
2022-11-04T18:23:49.734Z,8.89
2022-11-04T18:26:16.157Z,8.82
2022-11-04T18:28:42.939Z,8.85
2022-11-04T18:31:11.537Z,8.69
2022-11-04T18:33:38.314Z,8.64
2022-11-04T18:36:05.792Z,8.62
2022-11-04T18:38:32.806Z,8.68
2022-11-04T18:40:59.674Z,8.79
2022-11-04T18:43:26.240Z,8.80
2022-11-04T18:45:53.549Z,8.78
2022-11-04T18:48:21.267Z,8.79
2022-11-04T18:50:48.575Z,8.77
2022-11-04T18:53:15.711Z,8.79
2022-11-04T18:55:42.152Z,8.74
2022-11-04T18:58:09.049Z,8.81
2022-11-04T19:00:37.548Z,8.76
2022-11-04T19:03:04.059Z,8.74
2022-11-04T19:05:30.602Z,8.82
2022-11-04T19:07:57.011Z,8.74
2022-11-04T19:10:23.424Z,8.81
2022-11-04T19:13:08.948Z,8.77
2022-11-04T19:15:35.763Z,8.78
2022-11-04T19:18:02.171Z,8.79
2022-11-04T19:20:28.608Z,8.79
2022-11-04T19:22:55.037Z,8.67
2022-11-04T19:25:21.644Z,8.68
2022-11-04T19:28:05.255Z,8.75
2022-11-04T19:30:34.623Z,8.76
2022-11-04T19:33:01.271Z,8.73
2022-11-04T19:35:28.073Z,8.58
2022-11-04T19:37:54.930Z,8.73
2022-11-04T19:40:22.120Z,8.76
2022-11-04T19:43:06.899Z,8.73
2022-11-04T19:45:33.383Z,8.73
2022-11-04T19:47:59.930Z,8.69
2022-11-04T19:50:26.507Z,8.75
2022-11-04T19:52:52.944Z,8.68
2022-11-04T19:55:19.693Z,8.68
2022-11-04T19:57:46.077Z,8.71
2022-11-04T20:00:12.717Z,8.72
2022-11-04T20:02:39.385Z,8.60
2022-11-04T20:05:07.168Z,8.56
2022-11-04T20:07:33.611Z,8.63
2022-11-04T20:10:00.067Z,8.63
2022-11-04T20:12:45.276Z,8.77
2022-11-04T20:15:11.751Z,8.67
2022-11-04T20:17:38.195Z,8.73
2022-11-04T20:20:05.013Z,8.72
2022-11-04T20:22:31.473Z,8.80
2022-11-04T20:24:57.949Z,8.77
2022-11-04T20:27:24.359Z,8.74
2022-11-04T20:29:50.968Z,8.77
2022-11-04T20:32:17.429Z,8.72
2022-11-04T20:34:43.964Z,8.72
2022-11-04T20:37:12.387Z,8.74
2022-11-04T20:39:38.827Z,8.61
2022-11-04T20:42:05.363Z,8.67
2022-11-04T20:44:32.397Z,8.73
2022-11-04T20:46:59.374Z,8.74
2022-11-04T20:49:25.795Z,8.44
2022-11-04T20:51:55.470Z,8.60
2022-11-04T20:54:22.539Z,8.76
2022-11-04T20:56:48.957Z,8.70
2022-11-04T20:59:16.622Z,8.74
2022-11-04T21:01:44.911Z,8.75
2022-11-04T21:04:15.115Z,8.80
2022-11-04T21:06:41.966Z,8.78
2022-11-04T21:09:09.986Z,8.76
2022-11-04T21:11:36.483Z,8.78
2022-11-04T21:14:03.555Z,8.69
2022-11-04T21:16:30.487Z,8.70
2022-11-04T21:18:57.805Z,8.76
2022-11-04T21:21:27.194Z,8.75
2022-11-04T21:24:01.665Z,8.79
2022-11-04T21:26:30.236Z,8.74
2022-11-04T21:29:01.586Z,8.70
2022-11-04T21:31:30.463Z,8.65
2022-11-04T21:33:57.078Z,8.65
2022-11-04T21:36:23.557Z,8.70
2022-11-04T21:38:50.596Z,8.72
2022-11-04T21:43:59.854Z,8.64
2022-11-04T21:46:28.114Z,8.63
2022-11-04T21:48:55.100Z,8.76
2022-11-04T21:51:24.097Z,8.70
2022-11-04T21:53:50.583Z,8.65
2022-11-04T21:56:19.945Z,8.68
2022-11-04T21:58:46.807Z,8.66
2022-11-04T22:01:16.836Z,8.76
2022-11-04T22:03:43.608Z,8.60
2022-11-04T22:06:12.413Z,8.63
2022-11-04T22:08:43.175Z,8.56
2022-11-04T22:11:12.979Z,8.72
2022-11-04T22:13:39.524Z,8.76
2022-11-04T22:16:14.789Z,8.63
2022-11-04T22:18:41.341Z,8.64
2022-11-04T22:21:11.634Z,8.70
2022-11-04T22:23:38.136Z,8.56
2022-11-04T22:26:17.240Z,8.39
2022-11-04T22:28:44.107Z,8.44
2022-11-04T22:31:16.648Z,8.53
2022-11-04T22:33:43.305Z,8.43
2022-11-04T22:36:10.897Z,8.63
2022-11-04T22:38:38.366Z,8.49
2022-11-04T22:41:07.461Z,8.51
2022-11-04T22:43:34.246Z,8.57
2022-11-04T22:46:08.995Z,8.51
2022-11-04T22:48:36.197Z,8.38
2022-11-04T22:51:02.657Z,8.34
2022-11-04T22:53:29.137Z,8.37
2022-11-04T22:56:00.056Z,8.31
2022-11-04T22:58:27.715Z,8.37
2022-11-04T23:00:56.576Z,8.32
2022-11-04T23:03:24.316Z,8.34
2022-11-04T23:05:55.418Z,8.14
2022-11-04T23:08:22.267Z,8.19
2022-11-04T23:11:07.234Z,8.26
2022-11-04T23:13:52.426Z,8.17
2022-11-04T23:16:42.018Z,8.35
2022-11-04T23:19:08.596Z,8.30
2022-11-04T23:21:53.583Z,8.35
2022-11-04T23:24:38.603Z,8.40
2022-11-04T23:27:05.068Z,8.22
2022-11-04T23:32:06.684Z,8.25
2022-11-04T23:34:51.852Z,8.16
2022-11-04T23:37:18.444Z,8.25
2022-11-04T23:39:47.415Z,8.22
2022-11-04T23:42:17.458Z,8.23
2022-11-04T23:45:12.792Z,8.20
2022-11-04T23:48:03.302Z,8.25
2022-11-04T23:50:53.704Z,8.22
2022-11-04T23:53:39.690Z,8.06
2022-11-04T23:56:27.790Z,8.19
2022-11-04T23:59:12.619Z,8.09
